createdAt,value
2023-03-21T00:02:12.575Z,100454.94
2023-03-21T00:05:20.517Z,100456.09
2023-03-21T00:08:35.474Z,100451.91
2023-03-21T00:11:50.727Z,100459.16
2023-03-21T00:14:58.522Z,100453.22
2023-03-21T00:18:13.499Z,100438.06
2023-03-21T00:21:44.304Z,100452.75
2023-03-21T00:24:57.575Z,100442.59
2023-03-21T00:28:08.603Z,100434.50
2023-03-21T00:31:26.469Z,100434.03
2023-03-21T00:34:37.049Z,100427.78
2023-03-21T00:38:03.469Z,100425.25
2023-03-21T00:41:20.993Z,100415.63
2023-03-21T00:44:41.242Z,100413.81
2023-03-21T00:47:50.708Z,100411.41
2023-03-21T00:50:59.602Z,100403.50
2023-03-21T00:54:07.501Z,100402.66
2023-03-21T00:57:16.788Z,100399.66
2023-03-21T01:00:25.514Z,100409.06
2023-03-21T01:03:40.468Z,100400.84
2023-03-21T01:06:43.707Z,100404.69
2023-03-21T01:09:58.515Z,100408.94
2023-03-21T01:13:06.835Z,100405.38
2023-03-21T01:16:22.285Z,100399.31
2023-03-21T01:19:48.286Z,100408.25
2023-03-21T01:22:59.086Z,100403.72
2023-03-21T01:26:14.552Z,100394.28
2023-03-21T01:29:22.605Z,100397.81
2023-03-21T01:32:37.481Z,100395.09
2023-03-21T01:35:53.404Z,100400.31
2023-03-21T01:39:13.496Z,100397.59
2023-03-21T01:42:15.704Z,100394.25
2023-03-21T01:45:50.566Z,100398.44
2023-03-21T01:49:06.566Z,100408.88
2023-03-21T01:52:33.615Z,100403.81
2023-03-21T01:55:44.084Z,100402.13
2023-03-21T01:58:53.510Z,100409.06
2023-03-21T02:02:07.066Z,100408.34
2023-03-21T02:05:15.505Z,100412.59
2023-03-21T02:08:39.273Z,100412.06
2023-03-21T02:11:48.389Z,100408.03
2023-03-21T02:15:04.522Z,100411.22
2023-03-21T02:18:29.566Z,100407.50
2023-03-21T02:22:24.514Z,100405.84
2023-03-21T02:26:11.586Z,100406.03
2023-03-21T02:29:46.090Z,100408.03
2023-03-21T02:33:25.911Z,100404.34
2023-03-21T02:36:56.566Z,100400.63
2023-03-21T02:40:21.585Z,100403.81
2023-03-21T02:43:52.073Z,100398.94
2023-03-21T02:47:14.908Z,100417.97
2023-03-21T02:50:26.673Z,100406.34
2023-03-21T02:53:51.767Z,100410.22
2023-03-21T02:57:12.542Z,100407.22
2023-03-21T03:00:19.310Z,100421.38
2023-03-21T03:03:35.033Z,100411.59
2023-03-21T03:06:56.340Z,100411.59
2023-03-21T03:10:37.890Z,100407.75
2023-03-21T03:14:40.223Z,100414.16
2023-03-21T03:18:00.606Z,100416.97
2023-03-21T03:21:29.561Z,100418.34
2023-03-21T03:24:42.661Z,100415.63
2023-03-21T03:27:59.578Z,100417.16
2023-03-21T03:31:20.825Z,100417.84
2023-03-21T03:34:29.739Z,100407.72
2023-03-21T03:37:46.864Z,100419.81
2023-03-21T03:40:54.966Z,100419.13
2023-03-21T03:44:11.339Z,100423.72
2023-03-21T03:47:38.027Z,100416.63
2023-03-21T03:50:51.985Z,100405.69
2023-03-21T03:54:13.599Z,100416.81
2023-03-21T03:57:22.582Z,100426.09
2023-03-21T04:00:43.607Z,100408.75
2023-03-21T04:04:07.001Z,100411.25
2023-03-21T04:07:27.947Z,100409.38
2023-03-21T04:10:29.598Z,100417.13
2023-03-21T04:13:51.593Z,100417.66
2023-03-21T04:17:07.306Z,100420.69
2023-03-21T04:20:23.793Z,100413.44
2023-03-21T04:23:45.609Z,100423.22
2023-03-21T04:26:54.115Z,100419.97
2023-03-21T04:30:02.660Z,100417.63
2023-03-21T04:33:17.589Z,100422.50
2023-03-21T04:36:25.612Z,100419.28
2023-03-21T04:39:40.674Z,100416.94
2023-03-21T04:42:48.649Z,100421.16
2023-03-21T04:45:57.106Z,100411.91
2023-03-21T04:49:12.646Z,100415.75
2023-03-21T04:52:27.633Z,100413.63
2023-03-21T04:55:29.333Z,100416.16
2023-03-21T04:58:51.554Z,100413.63
2023-03-21T05:02:06.642Z,100412.12
2023-03-21T05:05:15.904Z,100419.66
2023-03-21T05:08:23.676Z,100416.13
2023-03-21T05:11:40.598Z,100422.53
2023-03-21T05:14:42.238Z,100419.50
2023-03-21T05:17:56.593Z,100430.72
2023-03-21T05:21:04.667Z,100432.59
2023-03-21T05:24:18.273Z,100430.37
2023-03-21T05:27:32.655Z,100430.44
2023-03-21T05:30:47.675Z,100429.72
2023-03-21T05:33:49.379Z,100429.94
2023-03-21T05:37:03.620Z,100435.34
2023-03-21T05:40:12.705Z,100429.97
2023-03-21T05:43:27.613Z,100436.87
2023-03-21T05:46:36.271Z,100437.44
2023-03-21T05:49:51.642Z,100448.41
2023-03-21T05:53:00.286Z,100444.75
2023-03-21T05:56:15.680Z,100451.66
2023-03-21T05:59:23.624Z,100447.44
2023-03-21T06:02:33.042Z,100450.31
2023-03-21T06:05:41.994Z,100458.91
2023-03-21T06:08:50.251Z,100451.50
2023-03-21T06:12:05.658Z,100451.34
2023-03-21T06:15:20.664Z,100452.88
2023-03-21T06:18:22.397Z,100453.06
2023-03-21T06:21:37.433Z,100458.28
2023-03-21T06:24:45.173Z,100452.75
2023-03-21T06:27:59.672Z,100453.59
2023-03-21T06:31:07.678Z,100451.94
2023-03-21T06:34:16.314Z,100456.31
2023-03-21T06:37:25.730Z,100457.16
2023-03-21T06:40:34.253Z,100458.13
2023-03-21T06:43:42.628Z,100458.50
2023-03-21T06:46:52.402Z,100462.69
2023-03-21T06:50:00.658Z,100457.13
2023-03-21T06:53:16.059Z,100463.19
2023-03-21T06:56:17.756Z,100460.66
2023-03-21T06:59:32.687Z,100458.84
2023-03-21T07:02:41.334Z,100465.41
2023-03-21T07:05:49.760Z,100463.03
2023-03-21T07:08:58.854Z,100466.75
2023-03-21T07:12:06.787Z,100474.84
2023-03-21T07:15:24.751Z,100473.34
2023-03-21T07:18:27.058Z,100472.44
2023-03-21T07:21:41.921Z,100465.69
2023-03-21T07:24:47.228Z,100470.16
2023-03-21T07:28:11.981Z,100471.97
2023-03-21T07:31:20.409Z,100469.72
2023-03-21T07:34:28.703Z,100470.38
2023-03-21T07:37:52.974Z,100473.06
2023-03-21T07:41:04.733Z,100451.50
2023-03-21T07:44:34.759Z,100455.81
2023-03-21T07:47:42.780Z,100470.00
2023-03-21T07:50:51.246Z,100460.69
2023-03-21T07:53:59.692Z,100462.75
2023-03-21T07:57:08.624Z,100463.34
2023-03-21T08:00:38.048Z,100460.13
2023-03-21T08:03:52.754Z,100460.63
2023-03-21T08:07:00.710Z,100462.25
2023-03-21T08:10:29.403Z,100453.22
2023-03-21T08:13:49.438Z,100453.44
2023-03-21T08:17:07.165Z,100457.28
2023-03-21T08:20:19.966Z,100456.19
2023-03-21T08:23:53.798Z,100456.84
2023-03-21T08:27:19.748Z,100457.78
2023-03-21T08:30:35.717Z,100453.09
2023-03-21T08:37:17.021Z,100455.25
2023-03-21T08:40:20.140Z,100451.13
2023-03-21T08:43:35.966Z,100467.25
2023-03-21T08:46:37.846Z,100458.63
2023-03-21T08:49:54.226Z,100460.50
2023-03-21T08:53:05.776Z,100459.75
2023-03-21T08:56:14.723Z,100462.06
2023-03-21T09:02:50.261Z,100464.56
2023-03-21T09:06:00.799Z,100458.41
2023-03-21T09:09:18.022Z,100460.41
2023-03-21T09:12:19.734Z,100462.53
2023-03-21T09:15:42.121Z,100457.19
2023-03-21T09:18:44.306Z,100455.19
2023-03-21T09:22:02.902Z,100465.34
2023-03-21T09:25:11.951Z,100458.50
2023-03-21T09:28:26.766Z,100459.00
2023-03-21T09:31:43.958Z,100460.91
2023-03-21T09:34:46.045Z,100459.69
2023-03-21T09:38:15.992Z,100463.72
2023-03-21T09:41:46.783Z,100458.28
2023-03-21T09:45:05.179Z,100459.41
2023-03-21T09:48:24.110Z,100454.94
2023-03-21T09:51:51.817Z,100462.91
2023-03-21T09:55:10.872Z,100454.81
2023-03-21T09:58:40.797Z,100456.97
2023-03-21T10:01:57.111Z,100456.78
2023-03-21T10:05:15.606Z,100455.47
2023-03-21T10:08:30.895Z,100452.66
2023-03-21T10:11:59.807Z,100438.13
2023-03-21T10:15:08.577Z,100459.75
2023-03-21T10:18:29.994Z,100450.34
2023-03-21T10:21:58.639Z,100453.25
2023-03-21T10:25:06.790Z,100442.12
2023-03-21T10:28:32.732Z,100442.34
2023-03-21T10:31:40.820Z,100445.09
2023-03-21T10:35:01.174Z,100438.38
2023-03-21T10:38:09.790Z,100440.44
2023-03-21T10:41:24.820Z,100437.94
2023-03-21T10:44:42.793Z,100417.84
2023-03-21T10:47:48.253Z,100425.81
2023-03-21T10:51:03.617Z,100423.72
2023-03-21T10:54:18.846Z,100424.38
2023-03-21T10:57:27.712Z,100421.66
2023-03-21T11:00:47.957Z,100418.97
2023-03-21T11:04:01.209Z,100413.72
2023-03-21T11:07:14.924Z,100407.84
2023-03-21T11:10:38.863Z,100407.44
2023-03-21T11:13:51.821Z,100406.41
2023-03-21T11:17:09.881Z,100393.22
2023-03-21T11:20:17.212Z,100381.88
2023-03-21T11:23:36.891Z,100389.41
2023-03-21T11:26:46.145Z,100390.56
2023-03-21T11:29:55.778Z,100382.84
2023-03-21T11:33:07.869Z,100375.03
2023-03-21T11:36:33.737Z,100361.50
2023-03-21T11:39:50.857Z,100361.78
2023-03-21T11:43:03.827Z,100363.50
2023-03-21T11:46:35.910Z,100362.87
2023-03-21T11:49:43.830Z,100355.78
2023-03-21T11:53:06.130Z,100343.69
2023-03-21T11:56:37.894Z,100349.22
2023-03-21T12:03:48.654Z,100332.84
2023-03-21T12:07:26.456Z,100325.37
2023-03-21T12:11:00.279Z,100325.69
2023-03-21T12:14:36.683Z,100306.78
2023-03-21T12:18:11.258Z,100320.31
2023-03-21T12:21:31.449Z,100311.31
2023-03-21T12:25:01.292Z,100315.31
2023-03-21T12:28:38.874Z,100323.03
2023-03-21T12:32:18.112Z,100331.78
2023-03-21T12:35:40.350Z,100283.69
2023-03-21T12:39:23.899Z,100329.97
2023-03-21T12:42:53.093Z,100328.53
2023-03-21T12:46:14.246Z,100321.25
2023-03-21T12:49:48.816Z,100322.13
2023-03-21T12:53:06.260Z,100315.03
2023-03-21T12:56:30.211Z,100315.03
2023-03-21T12:59:52.957Z,100307.47
2023-03-21T13:03:07.979Z,100300.16
2023-03-21T13:06:24.945Z,100297.63
2023-03-21T13:09:37.644Z,100270.81
2023-03-21T13:13:12.885Z,100282.94
2023-03-21T13:17:02.946Z,100269.69
2023-03-21T13:20:51.002Z,100278.22
2023-03-21T13:24:10.918Z,100270.75
2023-03-21T13:27:43.951Z,100273.34
2023-03-21T13:30:46.848Z,100270.63
2023-03-21T13:34:05.937Z,100272.06
2023-03-21T13:37:21.335Z,100285.69
2023-03-21T13:41:01.407Z,100252.59
2023-03-21T13:44:30.922Z,100276.06
2023-03-21T13:47:41.489Z,100268.94
2023-03-21T13:51:08.446Z,100258.44
2023-03-21T14:01:43.083Z,100260.78
2023-03-21T14:05:09.123Z,100256.59
2023-03-21T14:08:27.762Z,100251.13
2023-03-21T14:11:50.014Z,100248.19
2023-03-21T14:15:20.993Z,100249.44
2023-03-21T14:19:07.650Z,100248.62
2023-03-21T14:22:17.763Z,100242.50
2023-03-21T14:25:47.287Z,100241.50
2023-03-21T14:28:58.244Z,100227.47
2023-03-21T14:32:07.724Z,100207.75
2023-03-21T14:35:22.937Z,100220.34
2023-03-21T14:38:43.983Z,100224.97
2023-03-21T14:42:00.981Z,100206.09
2023-03-21T14:45:26.346Z,100216.81
2023-03-21T14:48:35.012Z,100201.53
2023-03-21T14:51:51.001Z,100211.78
2023-03-21T14:55:01.442Z,100218.28
2023-03-21T14:58:10.094Z,100213.25
2023-03-21T15:01:36.090Z,100215.97
2023-03-21T15:04:52.223Z,100220.97
2023-03-21T15:08:07.016Z,100218.03
2023-03-21T15:11:22.233Z,100213.84
2023-03-21T15:14:35.511Z,100208.16
2023-03-21T15:17:49.995Z,100206.47
2023-03-21T15:21:13.017Z,100202.72
2023-03-21T15:24:23.246Z,100198.72
2023-03-21T15:27:45.033Z,100195.16
2023-03-21T15:30:50.594Z,100194.94
2023-03-21T15:34:05.041Z,100198.28
2023-03-21T15:37:21.928Z,100196.22
2023-03-21T15:40:42.218Z,100205.38
2023-03-21T15:44:08.991Z,100205.78
2023-03-21T15:47:50.225Z,100211.88
2023-03-21T15:51:01.688Z,100209.28
2023-03-21T15:54:23.045Z,100205.44
2023-03-21T15:57:40.085Z,100204.78
2023-03-21T16:00:55.648Z,100206.44
2023-03-21T16:04:12.153Z,100202.13
2023-03-21T16:07:20.595Z,100206.72
2023-03-21T16:10:40.637Z,100201.75
2023-03-21T16:14:03.036Z,100209.00
2023-03-21T16:17:27.332Z,100212.94
2023-03-21T16:20:40.468Z,100213.31
2023-03-21T16:23:49.704Z,100218.66
2023-03-21T16:27:04.024Z,100213.16
2023-03-21T16:30:23.010Z,100214.13
2023-03-21T16:33:31.800Z,100213.69
2023-03-21T16:36:48.023Z,100216.41
2023-03-21T16:40:03.295Z,100217.16
2023-03-21T16:43:05.329Z,100222.59
2023-03-21T16:46:22.113Z,100222.53
2023-03-21T16:49:26.354Z,100225.25
2023-03-21T16:52:41.026Z,100230.03
2023-03-21T16:55:57.095Z,100235.78
2023-03-21T16:59:13.083Z,100237.84
2023-03-21T17:02:23.066Z,100244.44
2023-03-21T17:05:33.126Z,100243.91
2023-03-21T17:08:48.202Z,100251.78
2023-03-21T17:12:10.278Z,100253.81
2023-03-21T17:15:26.109Z,100249.16
2023-03-21T17:18:34.676Z,100247.84
2023-03-21T17:21:50.041Z,100255.34
2023-03-21T17:24:58.065Z,100248.81
2023-03-21T17:28:07.663Z,100258.56
2023-03-21T17:31:21.385Z,100257.25
2023-03-21T17:34:36.071Z,100256.50
2023-03-21T17:37:45.109Z,100260.25
2023-03-21T17:40:53.813Z,100250.53
2023-03-21T17:44:02.103Z,100255.59
2023-03-21T17:47:20.052Z,100266.44
2023-03-21T17:50:27.053Z,100259.06
2023-03-21T17:53:59.093Z,100263.19
2023-03-21T17:57:07.129Z,100255.06
2023-03-21T18:00:26.105Z,100263.47
2023-03-21T18:03:34.710Z,100276.38
2023-03-21T18:06:43.356Z,100286.91
2023-03-21T18:09:52.006Z,100270.38
2023-03-21T18:13:07.206Z,100292.41
2023-03-21T18:16:26.266Z,100282.03
2023-03-21T18:19:38.829Z,100295.88
2023-03-21T18:22:47.106Z,100288.75
2023-03-21T18:26:02.378Z,100292.47
2023-03-21T18:30:19.841Z,100290.53
2023-03-21T18:32:56.090Z,100295.47
2023-03-21T18:35:59.405Z,100293.78
2023-03-21T18:39:14.185Z,100296.09
2023-03-21T18:42:22.173Z,100293.97
2023-03-21T18:45:31.765Z,100297.66
2023-03-21T18:48:47.153Z,100302.78
2023-03-21T18:51:55.111Z,100302.97
2023-03-21T18:55:14.101Z,100303.50
2023-03-21T18:58:15.915Z,100304.69
2023-03-21T19:01:30.233Z,100305.06
2023-03-21T19:04:38.768Z,100306.44
2023-03-21T19:07:49.205Z,100304.50
2023-03-21T19:11:06.606Z,100300.44
2023-03-21T19:14:17.809Z,100312.28
2023-03-21T19:21:00.705Z,100311.63
2023-03-21T19:24:27.210Z,100313.50
2023-03-21T19:27:44.145Z,100322.44
2023-03-21T19:30:59.165Z,100312.34
2023-03-21T19:34:07.137Z,100319.81
2023-03-21T19:37:16.160Z,100315.97
2023-03-21T19:40:33.701Z,100315.13
2023-03-21T19:43:55.159Z,100317.16
2023-03-21T19:47:08.768Z,100325.81
2023-03-21T19:50:55.360Z,100333.47
2023-03-21T19:54:00.254Z,100327.03
2023-03-21T19:57:15.370Z,100327.53
2023-03-21T20:00:24.182Z,100340.22
2023-03-21T20:03:50.177Z,100340.22
2023-03-21T20:06:53.621Z,100338.25
2023-03-21T20:10:08.455Z,100334.38
2023-03-21T20:13:31.169Z,100339.59
2023-03-21T20:16:46.253Z,100343.34
2023-03-21T20:19:55.720Z,100338.63
2023-03-21T20:23:07.931Z,100349.44
2023-03-21T20:26:17.705Z,100346.44
2023-03-21T20:30:07.630Z,100348.81
2023-03-21T20:33:01.986Z,100347.62
2023-03-21T20:36:43.230Z,100352.03
2023-03-21T20:39:46.907Z,100354.41
2023-03-21T20:43:00.219Z,100352.41
2023-03-21T20:46:14.258Z,100352.94
2023-03-21T20:49:24.133Z,100354.97
2023-03-21T20:52:57.785Z,100352.63
2023-03-21T20:56:16.900Z,100349.41
2023-03-21T20:59:27.933Z,100356.69
2023-03-21T21:02:36.736Z,100362.44
2023-03-21T21:05:52.282Z,100366.34
2023-03-21T21:08:54.768Z,100362.47
2023-03-21T21:12:09.781Z,100364.50
2023-03-21T21:15:25.262Z,100375.13
2023-03-21T21:18:41.598Z,100367.69
2023-03-21T21:21:56.162Z,100371.56
2023-03-21T21:25:04.508Z,100366.66
2023-03-21T21:28:12.811Z,100364.81
2023-03-21T21:31:27.300Z,100365.16
2023-03-21T21:34:29.739Z,100378.16
2023-03-21T21:37:44.206Z,100369.88
2023-03-21T21:41:00.269Z,100372.25
2023-03-21T21:44:09.350Z,100373.97
2023-03-21T21:47:24.482Z,100371.41
2023-03-21T21:50:39.799Z,100382.91
2023-03-21T21:53:48.225Z,100381.56
2023-03-21T21:56:56.976Z,100380.22
2023-03-21T22:00:05.203Z,100393.22
2023-03-21T22:03:15.037Z,100382.44
2023-03-21T22:06:23.217Z,100392.22
2023-03-21T22:09:32.374Z,100386.16
2023-03-21T22:12:40.222Z,100391.72
2023-03-21T22:15:55.731Z,100405.53
2023-03-21T22:19:11.192Z,100415.12
2023-03-21T22:22:12.953Z,100424.25
2023-03-21T22:25:27.282Z,100427.28
2023-03-21T22:28:35.227Z,100419.91
2023-03-21T22:31:53.242Z,100425.78
2023-03-21T22:35:01.264Z,100427.81
2023-03-21T22:38:16.207Z,100429.00
2023-03-21T22:41:18.434Z,100426.47
2023-03-21T22:44:34.268Z,100426.59
2023-03-21T22:47:36.673Z,100424.94
2023-03-21T22:50:52.218Z,100433.69
2023-03-21T22:54:00.341Z,100429.66
2023-03-21T22:57:08.785Z,100429.31
2023-03-21T23:00:19.221Z,100419.69
2023-03-21T23:03:34.268Z,100419.69
2023-03-21T23:06:42.243Z,100414.47
2023-03-21T23:09:57.295Z,100417.19
2023-03-21T23:13:05.249Z,100420.88
2023-03-21T23:16:21.844Z,100409.75
2023-03-21T23:19:43.915Z,100411.75
2023-03-21T23:22:58.261Z,100418.00
2023-03-21T23:26:00.055Z,100416.66
2023-03-21T23:29:14.275Z,100419.19
2023-03-21T23:32:15.918Z,100420.34
2023-03-21T23:35:31.066Z,100416.28
2023-03-21T23:38:35.805Z,100416.47
2023-03-21T23:41:50.279Z,100409.75
2023-03-21T23:45:05.278Z,100423.53
2023-03-21T23:48:13.403Z,100422.53
2023-03-21T23:51:22.258Z,100417.16
2023-03-21T23:54:30.319Z,100428.94
2023-03-21T23:57:45.279Z,100420.84
